sensor_id;sensor_type;location;lat;lon;timestamp;temperature;humidity
64501;DHT22;50874;24.150;-110.320;2023-05-03T00:01:18;27.40;91.80
64501;DHT22;50874;24.150;-110.320;2023-05-03T00:03:44;27.30;92.00
64501;DHT22;50874;24.150;-110.320;2023-05-03T00:06:14;27.20;92.40
64501;DHT22;50874;24.150;-110.320;2023-05-03T00:08:41;27.10;92.90
64501;DHT22;50874;24.150;-110.320;2023-05-03T00:11:09;27.10;92.90
64501;DHT22;50874;24.150;-110.320;2023-05-03T00:13:36;27.10;92.70
64501;DHT22;50874;24.150;-110.320;2023-05-03T00:16:02;27.40;92.50
64501;DHT22;50874;24.150;-110.320;2023-05-03T00:18:29;27.30;92.60
64501;DHT22;50874;24.150;-110.320;2023-05-03T00:20:55;27.00;93.00
64501;DHT22;50874;24.150;-110.320;2023-05-03T00:23:22;26.80;93.40
64501;DHT22;50874;24.150;-110.320;2023-05-03T00:25:56;26.50;93.90
64501;DHT22;50874;24.150;-110.320;2023-05-03T00:28:24;26.30;94.20
64501;DHT22;50874;24.150;-110.320;2023-05-03T00:30:51;26.10;94.60
64501;DHT22;50874;24.150;-110.320;2023-05-03T00:33:18;26.10;95.00
64501;DHT22;50874;24.150;-110.320;2023-05-03T00:35:44;26.00;95.20
64501;DHT22;50874;24.150;-110.320;2023-05-03T00:38:11;25.70;95.60
64501;DHT22;50874;24.150;-110.320;2023-05-03T00:40:41;25.60;95.90
64501;DHT22;50874;24.150;-110.320;2023-05-03T00:43:10;25.30;96.30
64501;DHT22;50874;24.150;-110.320;2023-05-03T00:45:38;25.10;97.10
64501;DHT22;50874;24.150;-110.320;2023-05-03T00:48:05;25.00;97.20
64501;DHT22;50874;24.150;-110.320;2023-05-03T00:50:31;24.90;97.40
64501;DHT22;50874;24.150;-110.320;2023-05-03T00:52:58;24.60;98.10
64501;DHT22;50874;24.150;-110.320;2023-05-03T00:55:27;24.50;98.60
64501;DHT22;50874;24.150;-110.320;2023-05-03T00:57:56;24.40;98.90
64501;DHT22;50874;24.150;-110.320;2023-05-03T01:00:23;24.60;98.90
64501;DHT22;50874;24.150;-110.320;2023-05-03T01:02:50;24.40;99.10
64501;DHT22;50874;24.150;-110.320;2023-05-03T01:05:16;24.30;99.40
64501;DHT22;50874;24.150;-110.320;2023-05-03T01:10:51;24.10;99.80
64501;DHT22;50874;24.150;-110.320;2023-05-03T01:16:14;23.60;99.90
64501;DHT22;50874;24.150;-110.320;2023-05-03T01:18:45;23.40;99.90
64501;DHT22;50874;24.150;-110.320;2023-05-03T01:21:18;23.50;99.90
64501;DHT22;50874;24.150;-110.320;2023-05-03T01:26:19;23.10;99.90
64501;DHT22;50874;24.150;-110.320;2023-05-03T01:28:49;23.00;99.90
64501;DHT22;50874;24.150;-110.320;2023-05-03T01:31:27;22.90;99.90
64501;DHT22;50874;24.150;-110.320;2023-05-03T01:36:42;22.60;99.90
64501;DHT22;50874;24.150;-110.320;2023-05-03T01:39:22;22.40;99.90
64501;DHT22;50874;24.150;-110.320;2023-05-03T01:41:50;22.30;99.90
64501;DHT22;50874;24.150;-110.320;2023-05-03T01:44:17;22.30;99.90
64501;DHT22;50874;24.150;-110.320;2023-05-03T01:46:45;22.30;99.90
64501;DHT22;50874;24.150;-110.320;2023-05-03T01:49:12;22.20;99.90
64501;DHT22;50874;24.150;-110.320;2023-05-03T01:51:38;21.90;99.90
64501;DHT22;50874;24.150;-110.320;2023-05-03T01:54:05;21.90;99.90
64501;DHT22;50874;24.150;-110.320;2023-05-03T01:56:33;21.90;99.90
64501;DHT22;50874;24.150;-110.320;2023-05-03T01:59:02;21.90;99.90
64501;DHT22;50874;24.150;-110.320;2023-05-03T02:01:28;21.90;99.90
64501;DHT22;50874;24.150;-110.320;2023-05-03T02:03:55;21.80;99.90
64501;DHT22;50874;24.150;-110.320;2023-05-03T02:06:23;21.60;99.90
64501;DHT22;50874;24.150;-110.320;2023-05-03T02:08:51;21.40;99.90
64501;DHT22;50874;24.150;-110.320;2023-05-03T02:11:18;21.50;99.90
64501;DHT22;50874;24.150;-110.320;2023-05-03T02:13:46;21.30;99.90
64501;DHT22;50874;24.150;-110.320;2023-05-03T02:16:13;21.10;99.90
64501;DHT22;50874;24.150;-110.320;2023-05-03T02:18:40;21.10;99.90
64501;DHT22;50874;24.150;-110.320;2023-05-03T02:21:08;21.10;99.90
64501;DHT22;50874;24.150;-110.320;2023-05-03T02:23:35;21.10;99.90
64501;DHT22;50874;24.150;-110.320;2023-05-03T02:26:01;21.10;99.90
64501;DHT22;50874;24.150;-110.320;2023-05-03T02:28:28;21.00;99.90
64501;DHT22;50874;24.150;-110.320;2023-05-03T02:30:55;20.80;99.90
64501;DHT22;50874;24.150;-110.320;2023-05-03T02:33:21;20.70;99.90
64501;DHT22;50874;24.150;-110.320;2023-05-03T02:35:48;20.70;99.90
64501;DHT22;50874;24.150;-110.320;2023-05-03T02:38:14;20.60;99.90
64501;DHT22;50874;24.150;-110.320;2023-05-03T02:40:41;20.50;99.90
64501;DHT22;50874;24.150;-110.320;2023-05-03T02:43:08;20.40;99.90
64501;DHT22;50874;24.150;-110.320;2023-05-03T02:45:35;20.40;99.90
64501;DHT22;50874;24.150;-110.320;2023-05-03T02:48:02;20.40;99.90
64501;DHT22;50874;24.150;-110.320;2023-05-03T02:50:28;20.30;99.90
64501;DHT22;50874;24.150;-110.320;2023-05-03T02:52:57;20.10;99.90
64501;DHT22;50874;24.150;-110.320;2023-05-03T02:55:24;20.10;99.90
64501;DHT22;50874;24.150;-110.320;2023-05-03T02:57:50;20.20;99.90
64501;DHT22;50874;24.150;-110.320;2023-05-03T03:00:17;20.20;99.90
64501;DHT22;50874;24.150;-110.320;2023-05-03T03:02:44;20.10;99.90
64501;DHT22;50874;24.150;-110.320;2023-05-03T03:05:10;20.10;99.90
64501;DHT22;50874;24.150;-110.320;2023-05-03T03:07:37;20.10;99.90
64501;DHT22;50874;24.150;-110.320;2023-05-03T03:10:05;20.10;99.90
64501;DHT22;50874;24.150;-110.320;2023-05-03T03:12:34;20.00;99.90
64501;DHT22;50874;24.150;-110.320;2023-05-03T03:15:01;19.90;99.90
64501;DHT22;50874;24.150;-110.320;2023-05-03T03:17:29;19.80;99.90
64501;DHT22;50874;24.150;-110.320;2023-05-03T03:19:56;19.80;99.90
64501;DHT22;50874;24.150;-110.320;2023-05-03T03:22:23;19.70;99.90
64501;DHT22;50874;24.150;-110.320;2023-05-03T03:24:53;19.70;99.90
64501;DHT22;50874;24.150;-110.320;2023-05-03T03:27:19;19.70;99.90
64501;DHT22;50874;24.150;-110.320;2023-05-03T03:29:48;19.70;99.90
64501;DHT22;50874;24.150;-110.320;2023-05-03T03:32:14;19.60;99.90
64501;DHT22;50874;24.150;-110.320;2023-05-03T03:34:40;19.60;99.90
64501;DHT22;50874;24.150;-110.320;2023-05-03T03:37:07;19.70;99.90
64501;DHT22;50874;24.150;-110.320;2023-05-03T03:39:33;19.70;99.90
64501;DHT22;50874;24.150;-110.320;2023-05-03T03:42:00;19.70;99.90
64501;DHT22;50874;24.150;-110.320;2023-05-03T03:44:27;19.70;99.90
64501;DHT22;50874;24.150;-110.320;2023-05-03T03:46:54;19.60;99.90
64501;DHT22;50874;24.150;-110.320;2023-05-03T03:49:20;19.50;99.90
64501;DHT22;50874;24.150;-110.320;2023-05-03T03:51:46;19.50;99.90
64501;DHT22;50874;24.150;-110.320;2023-05-03T03:54:13;19.50;99.90
64501;DHT22;50874;24.150;-110.320;2023-05-03T03:56:39;19.50;99.90
64501;DHT22;50874;24.150;-110.320;2023-05-03T03:59:06;19.50;99.90
64501;DHT22;50874;24.150;-110.320;2023-05-03T04:01:33;19.40;99.90
64501;DHT22;50874;24.150;-110.320;2023-05-03T04:03:59;19.30;99.90
64501;DHT22;50874;24.150;-110.320;2023-05-03T04:06:26;19.30;99.90
64501;DHT22;50874;24.150;-110.320;2023-05-03T04:08:52;19.30;99.90
64501;DHT22;50874;24.150;-110.320;2023-05-03T04:11:18;19.40;99.90
64501;DHT22;50874;24.150;-110.320;2023-05-03T04:13:46;19.30;99.90
64501;DHT22;50874;24.150;-110.320;2023-05-03T04:16:13;19.20;99.90
64501;DHT22;50874;24.150;-110.320;2023-05-03T04:18:40;19.20;99.90
64501;DHT22;50874;24.150;-110.320;2023-05-03T04:21:07;19.20;99.90
64501;DHT22;50874;24.150;-110.320;2023-05-03T04:23:34;19.10;99.90
64501;DHT22;50874;24.150;-110.320;2023-05-03T04:26:00;19.10;99.90
64501;DHT22;50874;24.150;-110.320;2023-05-03T04:28:27;19.10;99.90
64501;DHT22;50874;24.150;-110.320;2023-05-03T04:30:53;19.10;99.90
64501;DHT22;50874;24.150;-110.320;2023-05-03T04:33:21;19.20;99.90
64501;DHT22;50874;24.150;-110.320;2023-05-03T04:35:51;19.10;99.90
64501;DHT22;50874;24.150;-110.320;2023-05-03T04:38:17;19.00;99.90
64501;DHT22;50874;24.150;-110.320;2023-05-03T04:40:44;19.00;99.90
64501;DHT22;50874;24.150;-110.320;2023-05-03T04:43:14;19.00;99.90
64501;DHT22;50874;24.150;-110.320;2023-05-03T04:45:40;19.10;99.90
64501;DHT22;50874;24.150;-110.320;2023-05-03T04:48:07;19.00;99.90
64501;DHT22;50874;24.150;-110.320;2023-05-03T04:50:34;19.00;99.90
64501;DHT22;50874;24.150;-110.320;2023-05-03T04:53:01;19.10;99.90
64501;DHT22;50874;24.150;-110.320;2023-05-03T04:55:27;19.10;99.90
64501;DHT22;50874;24.150;-110.320;2023-05-03T04:57:54;19.00;99.90
64501;DHT22;50874;24.150;-110.320;2023-05-03T05:00:21;19.00;99.90
64501;DHT22;50874;24.150;-110.320;2023-05-03T05:02:48;18.90;99.90
64501;DHT22;50874;24.150;-110.320;2023-05-03T05:05:15;18.90;99.90
64501;DHT22;50874;24.150;-110.320;2023-05-03T05:07:42;18.70;99.90
64501;DHT22;50874;24.150;-110.320;2023-05-03T05:10:08;18.80;99.90
64501;DHT22;50874;24.150;-110.320;2023-05-03T05:12:35;18.80;99.90
64501;DHT22;50874;24.150;-110.320;2023-05-03T05:15:02;18.80;99.90
64501;DHT22;50874;24.150;-110.320;2023-05-03T05:17:29;18.80;99.90
64501;DHT22;50874;24.150;-110.320;2023-05-03T05:19:55;18.80;99.90
64501;DHT22;50874;24.150;-110.320;2023-05-03T05:22:22;18.90;99.90
64501;DHT22;50874;24.150;-110.320;2023-05-03T05:24:48;18.90;99.90
64501;DHT22;50874;24.150;-110.320;2023-05-03T05:27:15;18.90;99.90
64501;DHT22;50874;24.150;-110.320;2023-05-03T05:29:41;18.80;99.90
64501;DHT22;50874;24.150;-110.320;2023-05-03T05:32:08;18.80;99.90
64501;DHT22;50874;24.150;-110.320;2023-05-03T05:34:34;18.70;99.90
64501;DHT22;50874;24.150;-110.320;2023-05-03T05:37:01;18.80;99.90
64501;DHT22;50874;24.150;-110.320;2023-05-03T05:39:27;18.80;99.90
64501;DHT22;50874;24.150;-110.320;2023-05-03T05:41:54;18.70;99.90
64501;DHT22;50874;24.150;-110.320;2023-05-03T05:44:20;18.80;99.90
64501;DHT22;50874;24.150;-110.320;2023-05-03T05:46:47;18.80;99.90
64501;DHT22;50874;24.150;-110.320;2023-05-03T05:49:14;18.80;99.90
64501;DHT22;50874;24.150;-110.320;2023-05-03T05:51:40;18.80;99.90
64501;DHT22;50874;24.150;-110.320;2023-05-03T05:54:06;18.70;99.90
64501;DHT22;50874;24.150;-110.320;2023-05-03T05:56:33;18.70;99.90
64501;DHT22;50874;24.150;-110.320;2023-05-03T05:58:59;18.60;99.90
64501;DHT22;50874;24.150;-110.320;2023-05-03T06:01:26;18.60;99.90
64501;DHT22;50874;24.150;-110.320;2023-05-03T06:03:52;18.60;99.90
64501;DHT22;50874;24.150;-110.320;2023-05-03T06:06:20;18.60;99.90
64501;DHT22;50874;24.150;-110.320;2023-05-03T06:08:46;18.60;99.90
64501;DHT22;50874;24.150;-110.320;2023-05-03T06:11:14;18.50;99.90
64501;DHT22;50874;24.150;-110.320;2023-05-03T06:13:42;18.50;99.90
64501;DHT22;50874;24.150;-110.320;2023-05-03T06:16:09;18.50;99.90
64501;DHT22;50874;24.150;-110.320;2023-05-03T06:18:36;18.40;99.90
64501;DHT22;50874;24.150;-110.320;2023-05-03T06:21:04;18.40;99.90
64501;DHT22;50874;24.150;-110.320;2023-05-03T06:23:30;18.40;99.90
64501;DHT22;50874;24.150;-110.320;2023-05-03T06:25:58;18.40;99.90
64501;DHT22;50874;24.150;-110.320;2023-05-03T06:28:24;18.40;99.90
64501;DHT22;50874;24.150;-110.320;2023-05-03T06:30:51;18.40;99.90
64501;DHT22;50874;24.150;-110.320;2023-05-03T06:33:17;18.30;99.90
64501;DHT22;50874;24.150;-110.320;2023-05-03T06:35:43;18.30;99.90
64501;DHT22;50874;24.150;-110.320;2023-05-03T06:38:12;18.40;99.90
64501;DHT22;50874;24.150;-110.320;2023-05-03T06:40:38;18.40;99.90
64501;DHT22;50874;24.150;-110.320;2023-05-03T06:43:06;18.40;99.90
64501;DHT22;50874;24.150;-110.320;2023-05-03T06:45:33;18.30;99.90
64501;DHT22;50874;24.150;-110.320;2023-05-03T06:47:59;18.30;99.90
64501;DHT22;50874;24.150;-110.320;2023-05-03T06:50:26;18.30;99.90
64501;DHT22;50874;24.150;-110.320;2023-05-03T06:52:53;18.30;99.90
64501;DHT22;50874;24.150;-110.320;2023-05-03T06:55:19;18.40;99.90
64501;DHT22;50874;24.150;-110.320;2023-05-03T06:57:46;18.30;99.90
64501;DHT22;50874;24.150;-110.320;2023-05-03T07:00:13;18.30;99.90
64501;DHT22;50874;24.150;-110.320;2023-05-03T07:02:41;18.20;99.90
64501;DHT22;50874;24.150;-110.320;2023-05-03T07:05:07;18.20;99.90
64501;DHT22;50874;24.150;-110.320;2023-05-03T07:07:34;18.20;99.90
64501;DHT22;50874;24.150;-110.320;2023-05-03T07:10:01;18.20;99.90
64501;DHT22;50874;24.150;-110.320;2023-05-03T07:12:28;18.20;99.90
64501;DHT22;50874;24.150;-110.320;2023-05-03T07:14:55;18.20;99.90
64501;DHT22;50874;24.150;-110.320;2023-05-03T07:17:21;18.20;99.90
64501;DHT22;50874;24.150;-110.320;2023-05-03T07:19:49;18.10;99.90
64501;DHT22;50874;24.150;-110.320;2023-05-03T07:22:16;18.10;99.90
64501;DHT22;50874;24.150;-110.320;2023-05-03T07:24:42;18.10;99.90
64501;DHT22;50874;24.150;-110.320;2023-05-03T07:27:09;18.10;99.90
64501;DHT22;50874;24.150;-110.320;2023-05-03T07:29:35;18.10;99.90
64501;DHT22;50874;24.150;-110.320;2023-05-03T07:32:02;18.00;99.90
64501;DHT22;50874;24.150;-110.320;2023-05-03T07:34:28;18.00;99.90
64501;DHT22;50874;24.150;-110.320;2023-05-03T07:36:55;18.00;99.90
64501;DHT22;50874;24.150;-110.320;2023-05-03T07:39:21;18.00;99.90
64501;DHT22;50874;24.150;-110.320;2023-05-03T07:41:48;18.10;99.90
64501;DHT22;50874;24.150;-110.320;2023-05-03T07:44:14;18.10;99.90
64501;DHT22;50874;24.150;-110.320;2023-05-03T07:46:41;18.00;99.90
64501;DHT22;50874;24.150;-110.320;2023-05-03T07:49:07;18.00;99.90
64501;DHT22;50874;24.150;-110.320;2023-05-03T07:51:37;18.00;99.90
64501;DHT22;50874;24.150;-110.320;2023-05-03T07:54:04;18.00;99.90
64501;DHT22;50874;24.150;-110.320;2023-05-03T07:56:31;17.90;99.90
64501;DHT22;50874;24.150;-110.320;2023-05-03T07:58:57;17.90;99.90
64501;DHT22;50874;24.150;-110.320;2023-05-03T08:01:24;17.80;99.90
64501;DHT22;50874;24.150;-110.320;2023-05-03T08:03:52;17.90;99.90
64501;DHT22;50874;24.150;-110.320;2023-05-03T08:06:19;17.80;99.90
64501;DHT22;50874;24.150;-110.320;2023-05-03T08:08:46;17.80;99.90
64501;DHT22;50874;24.150;-110.320;2023-05-03T08:11:12;17.70;99.90
64501;DHT22;50874;24.150;-110.320;2023-05-03T08:13:39;17.80;99.90
64501;DHT22;50874;24.150;-110.320;2023-05-03T08:16:06;17.70;99.90
64501;DHT22;50874;24.150;-110.320;2023-05-03T08:18:33;17.70;99.90
64501;DHT22;50874;24.150;-110.320;2023-05-03T08:20:59;17.70;99.90
64501;DHT22;50874;24.150;-110.320;2023-05-03T08:23:26;17.70;99.90
64501;DHT22;50874;24.150;-110.320;2023-05-03T08:25:52;17.60;99.90
64501;DHT22;50874;24.150;-110.320;2023-05-03T08:28:19;17.60;99.90
64501;DHT22;50874;24.150;-110.320;2023-05-03T08:30:46;17.60;99.90
64501;DHT22;50874;24.150;-110.320;2023-05-03T08:33:12;17.60;99.90
64501;DHT22;50874;24.150;-110.320;2023-05-03T08:35:38;17.60;99.90
64501;DHT22;50874;24.150;-110.320;2023-05-03T08:38:05;17.60;99.90
64501;DHT22;50874;24.150;-110.320;2023-05-03T08:40:32;17.60;99.90
64501;DHT22;50874;24.150;-110.320;2023-05-03T08:43:12;17.60;99.90
64501;DHT22;50874;24.150;-110.320;2023-05-03T08:45:40;17.60;99.90
64501;DHT22;50874;24.150;-110.320;2023-05-03T08:48:07;17.50;99.90
64501;DHT22;50874;24.150;-110.320;2023-05-03T08:50:34;17.60;99.90
64501;DHT22;50874;24.150;-110.320;2023-05-03T08:53:08;17.50;99.90
64501;DHT22;50874;24.150;-110.320;2023-05-03T08:55:35;17.50;99.90
64501;DHT22;50874;24.150;-110.320;2023-05-03T08:58:06;17.50;99.90
64501;DHT22;50874;24.150;-110.320;2023-05-03T09:00:37;17.50;99.90
64501;DHT22;50874;24.150;-110.320;2023-05-03T09:03:04;17.50;99.90
64501;DHT22;50874;24.150;-110.320;2023-05-03T09:05:31;17.60;99.90
64501;DHT22;50874;24.150;-110.320;2023-05-03T09:08:04;17.50;99.90
64501;DHT22;50874;24.150;-110.320;2023-05-03T09:10:32;17.50;99.90
64501;DHT22;50874;24.150;-110.320;2023-05-03T09:13:00;17.50;99.90
64501;DHT22;50874;24.150;-110.320;2023-05-03T09:15:30;17.50;99.90
64501;DHT22;50874;24.150;-110.320;2023-05-03T09:18:08;17.50;99.90
64501;DHT22;50874;24.150;-110.320;2023-05-03T09:20:36;17.50;99.90
64501;DHT22;50874;24.150;-110.320;2023-05-03T09:23:03;17.50;99.90
64501;DHT22;50874;24.150;-110.320;2023-05-03T09:25:42;17.50;99.90
64501;DHT22;50874;24.150;-110.320;2023-05-03T09:28:09;17.50;99.90
64501;DHT22;50874;24.150;-110.320;2023-05-03T09:30:35;17.50;99.90
64501;DHT22;50874;24.150;-110.320;2023-05-03T09:33:02;17.40;99.90
64501;DHT22;50874;24.150;-110.320;2023-05-03T09:35:29;17.50;99.90
64501;DHT22;50874;24.150;-110.320;2023-05-03T09:37:57;17.40;99.90
64501;DHT22;50874;24.150;-110.320;2023-05-03T09:40:28;17.40;99.90
64501;DHT22;50874;24.150;-110.320;2023-05-03T09:43:05;17.40;99.90
64501;DHT22;50874;24.150;-110.320;2023-05-03T09:45:34;17.40;99.90
64501;DHT22;50874;24.150;-110.320;2023-05-03T09:48:04;17.40;99.90
64501;DHT22;50874;24.150;-110.320;2023-05-03T09:50:33;17.40;99.90
64501;DHT22;50874;24.150;-110.320;2023-05-03T09:53:04;17.40;99.90
64501;DHT22;50874;24.150;-110.320;2023-05-03T09:55:37;17.40;99.90
64501;DHT22;50874;24.150;-110.320;2023-05-03T09:58:05;17.40;99.90
64501;DHT22;50874;24.150;-110.320;2023-05-03T10:00:40;17.40;99.90
64501;DHT22;50874;24.150;-110.320;2023-05-03T10:03:09;17.40;99.90
64501;DHT22;50874;24.150;-110.320;2023-05-03T10:05:47;17.40;99.90
64501;DHT22;50874;24.150;-110.320;2023-05-03T10:08:40;17.40;99.90
64501;DHT22;50874;24.150;-110.320;2023-05-03T10:11:08;17.30;99.90
64501;DHT22;50874;24.150;-110.320;2023-05-03T10:13:37;17.40;99.90
64501;DHT22;50874;24.150;-110.320;2023-05-03T10:16:10;17.40;99.90
64501;DHT22;50874;24.150;-110.320;2023-05-03T10:18:55;17.40;99.90
64501;DHT22;50874;24.150;-110.320;2023-05-03T10:24:13;17.20;99.90
64501;DHT22;50874;24.150;-110.320;2023-05-03T10:26:43;17.20;99.90
64501;DHT22;50874;24.150;-110.320;2023-05-03T10:32:36;17.20;99.90
64501;DHT22;50874;24.150;-110.320;2023-05-03T10:35:14;17.20;99.90
64501;DHT22;50874;24.150;-110.320;2023-05-03T10:37:42;17.20;99.90
64501;DHT22;50874;24.150;-110.320;2023-05-03T10:40:15;17.20;99.90
64501;DHT22;50874;24.150;-110.320;2023-05-03T10:42:44;17.20;99.90
64501;DHT22;50874;24.150;-110.320;2023-05-03T10:45:27;17.10;99.90
64501;DHT22;50874;24.150;-110.320;2023-05-03T10:50:41;17.10;99.90
64501;DHT22;50874;24.150;-110.320;2023-05-03T10:53:11;17.00;99.90
64501;DHT22;50874;24.150;-110.320;2023-05-03T10:56:08;17.00;99.90
64501;DHT22;50874;24.150;-110.320;2023-05-03T10:58:42;17.10;99.90
64501;DHT22;50874;24.150;-110.320;2023-05-03T11:01:11;17.10;99.90
64501;DHT22;50874;24.150;-110.320;2023-05-03T11:03:45;17.00;99.90
64501;DHT22;50874;24.150;-110.320;2023-05-03T11:06:33;17.10;99.90
64501;DHT22;50874;24.150;-110.320;2023-05-03T11:08:58;17.00;99.90
64501;DHT22;50874;24.150;-110.320;2023-05-03T11:11:25;17.00;99.90
64501;DHT22;50874;24.150;-110.320;2023-05-03T11:13:52;17.00;99.90
64501;DHT22;50874;24.150;-110.320;2023-05-03T11:16:19;17.10;99.90
64501;DHT22;50874;24.150;-110.320;2023-05-03T11:18:46;17.10;99.90
64501;DHT22;50874;24.150;-110.320;2023-05-03T11:21:14;17.10;99.90
64501;DHT22;50874;24.150;-110.320;2023-05-03T11:23:43;17.10;99.90
64501;DHT22;50874;24.150;-110.320;2023-05-03T11:26:10;17.00;99.90
64501;DHT22;50874;24.150;-110.320;2023-05-03T11:28:41;17.00;99.90
64501;DHT22;50874;24.150;-110.320;2023-05-03T11:31:09;17.00;99.90
64501;DHT22;50874;24.150;-110.320;2023-05-03T11:33:37;17.00;99.90
64501;DHT22;50874;24.150;-110.320;2023-05-03T11:36:05;17.00;99.90
64501;DHT22;50874;24.150;-110.320;2023-05-03T11:38:34;17.00;99.90
64501;DHT22;50874;24.150;-110.320;2023-05-03T11:41:12;17.00;99.90
64501;DHT22;50874;24.150;-110.320;2023-05-03T11:43:46;16.90;99.90
64501;DHT22;50874;24.150;-110.320;2023-05-03T11:46:19;17.00;99.90
64501;DHT22;50874;24.150;-110.320;2023-05-03T11:48:48;16.90;99.90
64501;DHT22;50874;24.150;-110.320;2023-05-03T11:51:16;16.90;99.90
64501;DHT22;50874;24.150;-110.320;2023-05-03T11:53:46;16.90;99.90
64501;DHT22;50874;24.150;-110.320;2023-05-03T11:56:13;16.90;99.90
64501;DHT22;50874;24.150;-110.320;2023-05-03T11:58:55;16.90;99.90
64501;DHT22;50874;24.150;-110.320;2023-05-03T12:01:29;16.90;99.90
64501;DHT22;50874;24.150;-110.320;2023-05-03T12:03:57;16.80;99.90
64501;DHT22;50874;24.150;-110.320;2023-05-03T12:06:24;16.80;99.90
64501;DHT22;50874;24.150;-110.320;2023-05-03T12:08:52;16.80;99.90
64501;DHT22;50874;24.150;-110.320;2023-05-03T12:11:21;16.80;99.90
64501;DHT22;50874;24.150;-110.320;2023-05-03T12:14:01;16.80;99.90
64501;DHT22;50874;24.150;-110.320;2023-05-03T12:16:43;16.80;99.90
64501;DHT22;50874;24.150;-110.320;2023-05-03T12:19:10;16.80;99.90
64501;DHT22;50874;24.150;-110.320;2023-05-03T12:21:45;16.80;99.90
64501;DHT22;50874;24.150;-110.320;2023-05-03T12:24:12;16.80;99.90
64501;DHT22;50874;24.150;-110.320;2023-05-03T12:26:44;16.80;99.90
64501;DHT22;50874;24.150;-110.320;2023-05-03T12:29:11;16.80;99.90
64501;DHT22;50874;24.150;-110.320;2023-05-03T12:31:38;16.70;99.90
64501;DHT22;50874;24.150;-110.320;2023-05-03T12:34:05;16.70;99.90
64501;DHT22;50874;24.150;-110.320;2023-05-03T12:36:32;16.80;99.90
64501;DHT22;50874;24.150;-110.320;2023-05-03T12:39:00;16.80;99.90
64501;DHT22;50874;24.150;-110.320;2023-05-03T12:41:27;16.80;99.90
64501;DHT22;50874;24.150;-110.320;2023-05-03T12:43:59;16.80;99.90
64501;DHT22;50874;24.150;-110.320;2023-05-03T12:46:29;16.70;99.90
64501;DHT22;50874;24.150;-110.320;2023-05-03T12:48:55;16.80;99.90
64501;DHT22;50874;24.150;-110.320;2023-05-03T12:51:22;16.70;99.90
64501;DHT22;50874;24.150;-110.320;2023-05-03T12:53:50;16.70;99.90
64501;DHT22;50874;24.150;-110.320;2023-05-03T12:56:16;16.70;99.90
64501;DHT22;50874;24.150;-110.320;2023-05-03T12:58:43;16.70;99.90
64501;DHT22;50874;24.150;-110.320;2023-05-03T13:01:12;16.70;99.90
64501;DHT22;50874;24.150;-110.320;2023-05-03T13:03:39;16.70;99.90
64501;DHT22;50874;24.150;-110.320;2023-05-03T13:06:05;16.70;99.90
64501;DHT22;50874;24.150;-110.320;2023-05-03T13:08:33;16.70;99.90
64501;DHT22;50874;24.150;-110.320;2023-05-03T13:11:01;16.80;99.90
64501;DHT22;50874;24.150;-110.320;2023-05-03T13:13:27;16.80;99.90
64501;DHT22;50874;24.150;-110.320;2023-05-03T13:15:54;16.80;99.90
64501;DHT22;50874;24.150;-110.320;2023-05-03T13:18:20;16.80;99.90
64501;DHT22;50874;24.150;-110.320;2023-05-03T13:20:47;16.80;99.90
64501;DHT22;50874;24.150;-110.320;2023-05-03T13:23:14;16.80;99.90
64501;DHT22;50874;24.150;-110.320;2023-05-03T13:25:40;16.80;99.90
64501;DHT22;50874;24.150;-110.320;2023-05-03T13:28:09;16.80;99.90
64501;DHT22;50874;24.150;-110.320;2023-05-03T13:30:35;16.80;99.90
64501;DHT22;50874;24.150;-110.320;2023-05-03T13:33:01;16.90;99.90
64501;DHT22;50874;24.150;-110.320;2023-05-03T13:35:28;17.00;99.90
64501;DHT22;50874;24.150;-110.320;2023-05-03T13:37:54;17.10;99.90
64501;DHT22;50874;24.150;-110.320;2023-05-03T13:40:21;17.10;99.90
64501;DHT22;50874;24.150;-110.320;2023-05-03T13:42:49;17.20;99.90
64501;DHT22;50874;24.150;-110.320;2023-05-03T13:45:16;17.30;99.90
64501;DHT22;50874;24.150;-110.320;2023-05-03T13:47:43;17.30;99.90
64501;DHT22;50874;24.150;-110.320;2023-05-03T13:50:09;17.30;99.90
64501;DHT22;50874;24.150;-110.320;2023-05-03T13:52:36;17.30;99.90
64501;DHT22;50874;24.150;-110.320;2023-05-03T13:55:03;17.20;99.90
64501;DHT22;50874;24.150;-110.320;2023-05-03T13:57:29;17.30;99.90
64501;DHT22;50874;24.150;-110.320;2023-05-03T13:59:56;17.50;99.90
64501;DHT22;50874;24.150;-110.320;2023-05-03T14:02:22;17.50;99.90
64501;DHT22;50874;24.150;-110.320;2023-05-03T14:04:49;17.70;99.90
64501;DHT22;50874;24.150;-110.320;2023-05-03T14:07:16;18.00;99.90
64501;DHT22;50874;24.150;-110.320;2023-05-03T14:09:43;18.00;99.90
64501;DHT22;50874;24.150;-110.320;2023-05-03T14:12:09;18.10;99.90
64501;DHT22;50874;24.150;-110.320;2023-05-03T14:14:36;18.20;99.90
64501;DHT22;50874;24.150;-110.320;2023-05-03T14:17:02;18.20;99.90
64501;DHT22;50874;24.150;-110.320;2023-05-03T14:19:29;18.40;99.90
64501;DHT22;50874;24.150;-110.320;2023-05-03T14:21:56;18.60;99.90
64501;DHT22;50874;24.150;-110.320;2023-05-03T14:24:24;18.70;99.90
64501;DHT22;50874;24.150;-110.320;2023-05-03T14:26:52;18.80;99.90
64501;DHT22;50874;24.150;-110.320;2023-05-03T14:29:18;18.80;99.90
64501;DHT22;50874;24.150;-110.320;2023-05-03T14:31:45;18.60;99.90
64501;DHT22;50874;24.150;-110.320;2023-05-03T14:34:12;18.40;99.90
64501;DHT22;50874;24.150;-110.320;2023-05-03T14:36:38;18.30;99.90
64501;DHT22;50874;24.150;-110.320;2023-05-03T14:39:09;18.30;99.90
64501;DHT22;50874;24.150;-110.320;2023-05-03T14:41:35;18.30;99.90
64501;DHT22;50874;24.150;-110.320;2023-05-03T14:44:02;18.20;99.90
64501;DHT22;50874;24.150;-110.320;2023-05-03T14:46:28;18.10;99.90
64501;DHT22;50874;24.150;-110.320;2023-05-03T14:48:56;18.10;99.90
64501;DHT22;50874;24.150;-110.320;2023-05-03T14:51:23;18.20;99.90
64501;DHT22;50874;24.150;-110.320;2023-05-03T14:53:49;18.20;99.90
64501;DHT22;50874;24.150;-110.320;2023-05-03T14:56:16;18.20;99.90
64501;DHT22;50874;24.150;-110.320;2023-05-03T14:58:42;18.20;99.90
64501;DHT22;50874;24.150;-110.320;2023-05-03T15:01:16;18.30;99.90
64501;DHT22;50874;24.150;-110.320;2023-05-03T15:03:43;18.30;99.90
64501;DHT22;50874;24.150;-110.320;2023-05-03T15:06:09;18.40;99.90
64501;DHT22;50874;24.150;-110.320;2023-05-03T15:08:36;18.40;99.90
64501;DHT22;50874;24.150;-110.320;2023-05-03T15:11:04;18.40;99.90
64501;DHT22;50874;24.150;-110.320;2023-05-03T15:13:33;18.40;99.90